Time;durP1;ratioP1;P1;durP2;ratioP2;P2;SDS_P1;SDS_P2;PMS_P1;PMS_P2;Temp;Humidity;BMP_temperature;BMP_pressure;BME280_temperature;BME280_humidity;BME280_pressure;Samples;Min_cycle;Max_cycle;Signal;HPM_P1;HPM_P2
2023/01/27 00:00:05;;;;;;;18.90;11.75;;;4.10;99.90;;;;;;5094245;28;20054;-66
2023/01/27 00:02:31;;;;;;;20.80;11.60;;;4.10;99.90;;;;;;5112156;28;20051;-69
2023/01/27 00:04:56;;;;;;;20.70;12.13;;;4.00;99.90;;;;;;5111942;28;20050;-67
2023/01/27 00:07:22;;;;;;;18.08;11.60;;;4.10;99.90;;;;;;5112090;28;20497;-67
2023/01/27 00:09:48;;;;;;;20.05;11.13;;;4.10;99.90;;;;;;5093717;28;20047;-67
2023/01/27 00:15:04;;;;;;;22.35;11.50;;;4.00;99.90;;;;;;5112274;28;20048;-68
2023/01/27 00:17:31;;;;;;;20.05;12.82;;;4.00;99.90;;;;;;5111836;28;20117;-67
2023/01/27 00:19:56;;;;;;;18.90;11.90;;;4.00;99.90;;;;;;5111441;28;20051;-67
2023/01/27 00:25:06;;;;;;;17.05;11.35;;;3.90;99.90;;;;;;5094148;28;20431;-67
2023/01/27 00:27:32;;;;;;;15.98;10.75;;;3.90;99.90;;;;;;5111876;28;20104;-68
2023/01/27 00:29:58;;;;;;;15.18;10.10;;;4.00;99.90;;;;;;5111572;28;20052;-68
2023/01/27 00:35:08;;;;;;;14.77;10.25;;;3.90;99.90;;;;;;5111986;28;20063;-67
2023/01/27 00:37:34;;;;;;;13.65;9.00;;;3.90;99.90;;;;;;5093644;28;20055;-67
2023/01/27 00:39:59;;;;;;;14.40;9.60;;;3.90;99.90;;;;;;5093164;28;20568;-67
2023/01/27 00:42:25;;;;;;;14.48;8.93;;;4.10;99.90;;;;;;5076959;28;20447;-68
2023/01/27 00:47:35;;;;;;;13.93;8.43;;;3.90;99.90;;;;;;5111915;28;20058;-67
2023/01/27 00:50:00;;;;;;;17.63;7.47;;;3.90;99.90;;;;;;5076447;28;20043;-67
2023/01/27 00:52:26;;;;;;;13.25;8.13;;;3.90;99.90;;;;;;5111862;28;20055;-68
2023/01/27 00:54:52;;;;;;;9.85;6.85;;;3.90;99.90;;;;;;5093497;28;20040;-67
2023/01/27 00:57:18;;;;;;;13.68;7.47;;;3.90;99.90;;;;;;5076991;28;20089;-67
2023/01/27 00:59:43;;;;;;;12.20;6.65;;;3.90;99.90;;;;;;5110964;28;20481;-70
2023/01/27 01:02:09;;;;;;;10.07;6.20;;;3.90;99.90;;;;;;5114673;28;20047;-69
2023/01/27 01:04:35;;;;;;;9.35;7.22;;;3.90;99.90;;;;;;5115700;28;20559;-68
2023/01/27 01:07:00;;;;;;;12.25;7.03;;;3.90;99.90;;;;;;5115310;28;20046;-68
2023/01/27 01:09:26;;;;;;;10.60;6.80;;;3.90;99.90;;;;;;5097162;28;20039;-67
2023/01/27 01:11:52;;;;;;;11.50;6.43;;;3.90;99.90;;;;;;5097164;28;20050;-68
2023/01/27 01:14:17;;;;;;;10.65;5.80;;;3.90;99.90;;;;;;5080559;28;20051;-67
2023/01/27 01:16:43;;;;;;;9.82;5.85;;;3.90;99.90;;;;;;5115430;28;20461;-67
2023/01/27 01:19:09;;;;;;;10.45;6.47;;;3.90;99.90;;;;;;5096905;28;20131;-67
2023/01/27 01:21:35;;;;;;;8.30;5.63;;;3.90;99.90;;;;;;5115231;28;20126;-68
2023/01/27 01:24:01;;;;;;;8.80;5.40;;;3.90;99.90;;;;;;5096488;28;20054;-67
2023/01/27 01:26:27;;;;;;;11.73;5.40;;;3.90;99.90;;;;;;5114733;28;20035;-68
2023/01/27 01:28:52;;;;;;;11.40;5.90;;;4.00;99.90;;;;;;5114806;28;20132;-67
2023/01/27 01:31:19;;;;;;;9.55;5.30;;;4.00;99.90;;;;;;5115002;28;20052;-67
2023/01/27 01:33:46;;;;;;;9.90;5.68;;;4.00;99.90;;;;;;5115076;28;20047;-67
2023/01/27 01:36:15;;;;;;;9.07;4.93;;;4.00;99.90;;;;;;5096490;28;20052;-67
2023/01/27 01:38:41;;;;;;;8.48;4.65;;;4.00;99.90;;;;;;5114866;28;20054;-68
2023/01/27 01:41:12;;;;;;;7.55;4.68;;;4.00;99.90;;;;;;5114357;28;20070;-67
2023/01/27 01:43:37;;;;;;;12.20;4.95;;;4.20;99.90;;;;;;5096209;28;20048;-67
2023/01/27 01:46:05;;;;;;;7.82;4.40;;;4.00;99.90;;;;;;5113920;28;20063;-67
2023/01/27 01:48:35;;;;;;;12.75;4.38;;;4.00;99.90;;;;;;5063304;28;20054;-67
2023/01/27 01:51:10;;;;;;;10.25;4.70;;;4.10;99.90;;;;;;5114239;28;20043;-68
2023/01/27 01:53:56;;;;;;;9.85;4.38;;;4.10;99.90;;;;;;5114282;28;20505;-68
2023/01/27 01:56:27;;;;;;;11.80;4.60;;;4.00;99.90;;;;;;5096648;28;20081;-68
2023/01/27 01:58:56;;;;;;;8.10;4.35;;;4.00;99.90;;;;;;5114151;28;20036;-67
2023/01/27 02:01:22;;;;;;;8.25;3.85;;;4.10;99.90;;;;;;5096576;28;20052;-69
2023/01/27 02:03:53;;;;;;;7.78;3.55;;;4.00;99.90;;;;;;5114228;28;20588;-66
2023/01/27 02:06:20;;;;;;;12.60;3.80;;;4.10;99.90;;;;;;5096473;28;20120;-67
2023/01/27 02:08:48;;;;;;;8.77;3.50;;;4.10;99.90;;;;;;5114259;28;20039;-67
2023/01/27 02:11:13;;;;;;;6.95;2.60;;;4.10;99.90;;;;;;5114033;28;20196;-67
2023/01/27 02:13:39;;;;;;;3.95;2.30;;;4.10;99.90;;;;;;5095948;28;20134;-68
2023/01/27 02:16:07;;;;;;;4.78;2.30;;;4.10;99.90;;;;;;5113758;28;20160;-67
2023/01/27 02:18:32;;;;;;;8.45;2.45;;;4.10;99.90;;;;;;5114208;28;20044;-68
2023/01/27 02:20:58;;;;;;;4.47;2.20;;;4.10;99.90;;;;;;5095851;28;20124;-66
2023/01/27 02:23:51;;;;;;;3.70;2.03;;;4.10;99.90;;;;;;5114198;28;20404;-68
2023/01/27 02:26:30;;;;;;;5.93;1.92;;;4.20;99.90;;;;;;5095703;28;20051;-68
2023/01/27 02:29:05;;;;;;;3.65;2.00;;;4.20;99.90;;;;;;5113560;28;20043;-71
2023/01/27 02:31:31;;;;;;;3.80;2.30;;;4.10;99.90;;;;;;5096116;28;20056;-67
2023/01/27 02:34:05;;;;;;;5.15;2.08;;;4.20;99.90;;;;;;5113385;28;20516;-70
2023/01/27 02:36:35;;;;;;;7.43;2.10;;;4.10;99.90;;;;;;5079012;28;20126;-67
2023/01/27 02:39:01;;;;;;;8.60;2.20;;;4.10;99.90;;;;;;5095231;28;20044;-66
2023/01/27 02:41:39;;;;;;;6.32;2.30;;;4.10;99.90;;;;;;5113556;28;20081;-69
2023/01/27 02:44:06;;;;;;;4.32;2.20;;;4.20;99.90;;;;;;5112862;28;20052;-67
2023/01/27 02:46:32;;;;;;;6.70;2.35;;;4.10;99.90;;;;;;5113511;28;20057;-68
2023/01/27 02:48:57;;;;;;;5.18;2.00;;;4.20;99.90;;;;;;5095451;28;20126;-70
2023/01/27 02:51:23;;;;;;;3.85;1.88;;;4.20;99.90;;;;;;5061998;28;20087;-68
2023/01/27 02:53:49;;;;;;;6.50;1.92;;;4.10;99.90;;;;;;5095403;28;20104;-68
2023/01/27 02:56:15;;;;;;;6.13;2.30;;;4.10;99.90;;;;;;5112911;28;20127;-68
2023/01/27 02:58:40;;;;;;;5.28;1.95;;;4.10;99.90;;;;;;5095268;28;20052;-67
2023/01/27 03:01:06;;;;;;;3.92;1.77;;;4.10;99.90;;;;;;5094949;28;20108;-67
2023/01/27 03:03:32;;;;;;;5.10;2.20;;;4.00;99.90;;;;;;5095046;28;20412;-68
2023/01/27 03:05:58;;;;;;;3.53;1.90;;;4.10;99.90;;;;;;5113191;28;20134;-68
2023/01/27 03:08:23;;;;;;;5.30;1.80;;;4.10;99.90;;;;;;5094589;28;20182;-68
2023/01/27 03:10:51;;;;;;;4.45;1.77;;;4.10;99.90;;;;;;5113117;28;20133;-67
2023/01/27 03:13:25;;;;;;;10.35;2.13;;;4.10;99.90;;;;;;5112835;28;20144;-67
2023/01/27 03:18:35;;;;;;;3.35;1.70;;;4.00;99.90;;;;;;5112957;28;20054;-68
2023/01/27 03:21:04;;;;;;;3.80;1.73;;;4.10;99.90;;;;;;5112746;28;20047;-70
2023/01/27 03:23:33;;;;;;;5.28;1.80;;;4.00;99.90;;;;;;5094361;28;20445;-67
2023/01/27 03:25:59;;;;;;;4.93;1.92;;;4.00;99.90;;;;;;5112543;28;20048;-67
2023/01/27 03:28:25;;;;;;;8.23;2.53;;;4.00;99.90;;;;;;5112560;28;20122;-67
2023/01/27 03:30:50;;;;;;;5.32;1.70;;;4.00;99.90;;;;;;5112940;28;20079;-68
2023/01/27 03:33:16;;;;;;;7.25;2.15;;;3.90;99.90;;;;;;5112050;28;20473;-67
2023/01/27 03:35:47;;;;;;;6.05;1.80;;;4.00;99.90;;;;;;5094724;28;20108;-68
2023/01/27 03:46:31;;;;;;;8.40;2.47;;;3.90;99.90;;;;;;5112303;28;20055;-68
2023/01/27 03:48:58;;;;;;;4.18;1.90;;;3.90;99.90;;;;;;5112181;28;20558;-67
2023/01/27 03:51:25;;;;;;;5.78;1.80;;;3.90;99.90;;;;;;5077428;28;20083;-68
2023/01/27 03:53:51;;;;;;;9.43;2.13;;;3.90;99.90;;;;;;5112128;28;20087;-68
2023/01/27 03:56:18;;;;;;;6.95;2.25;;;3.80;99.90;;;;;;5093678;28;20489;-68
2023/01/27 03:58:46;;;;;;;6.30;1.90;;;3.80;99.90;;;;;;5111945;28;20043;-67
2023/01/27 04:01:14;;;;;;;6.95;2.13;;;3.80;99.90;;;;;;5093831;28;20035;-68
2023/01/27 04:09:19;;;;;;;5.85;1.70;;;3.80;99.90;;;;;;5111589;28;20049;-68
2023/01/27 04:11:54;;;;;;;5.32;1.88;;;3.80;99.90;;;;;;5112030;28;20055;-70
2023/01/27 04:14:25;;;;;;;7.50;1.70;;;4.20;99.90;;;;;;5111661;28;20054;-67
2023/01/27 04:16:53;;;;;;;3.22;1.58;;;3.80;99.90;;;;;;5112220;28;20047;-69
2023/01/27 04:19:19;;;;;;;4.93;1.70;;;3.80;99.90;;;;;;5093413;28;20100;-68
2023/01/27 04:21:46;;;;;;;3.70;1.80;;;3.80;99.90;;;;;;5112138;28;20082;-68
2023/01/27 04:24:15;;;;;;;4.35;1.80;;;3.80;99.90;;;;;;5093715;28;20130;-74
2023/01/27 04:26:44;;;;;;;4.78;1.80;;;3.90;99.90;;;;;;5111991;28;20055;-67
2023/01/27 04:29:12;;;;;;;4.93;1.50;;;3.80;99.90;;;;;;5077075;28;20619;-67
2023/01/27 04:31:38;;;;;;;5.72;1.88;;;3.80;99.90;;;;;;5093590;28;20051;-67
2023/01/27 04:34:03;;;;;;;4.30;1.92;;;3.80;99.90;;;;;;5094172;28;20051;-67
2023/01/27 04:36:29;;;;;;;6.05;1.92;;;3.80;99.90;;;;;;5113494;28;20048;-67
2023/01/27 04:38:55;;;;;;;3.78;2.00;;;3.80;99.90;;;;;;5097847;28;20458;-68
2023/01/27 04:41:20;;;;;;;8.45;2.45;;;3.70;99.90;;;;;;5096501;28;20126;-71
2023/01/27 04:43:46;;;;;;;4.40;2.05;;;3.70;99.90;;;;;;5097490;28;20052;-68
2023/01/27 04:46:12;;;;;;;7.50;2.35;;;3.50;99.90;;;;;;5115374;28;20058;-69
2023/01/27 04:48:37;;;;;;;8.18;2.33;;;3.70;99.90;;;;;;5115362;28;20135;-68
2023/01/27 04:51:03;;;;;;;4.90;1.95;;;3.80;99.90;;;;;;5115498;28;20199;-67
2023/01/27 04:53:29;;;;;;;7.28;2.45;;;3.70;99.90;;;;;;5097405;28;20043;-67
2023/01/27 04:56:04;;;;;;;4.32;2.03;;;3.70;99.90;;;;;;5116101;28;20527;-68
2023/01/27 04:58:30;;;;;;;6.60;2.60;;;3.70;99.90;;;;;;5115199;28;20168;-69
2023/01/27 05:00:56;;;;;;;3.85;2.00;;;3.70;99.90;;;;;;5097647;28;20097;-68
2023/01/27 05:03:21;;;;;;;7.65;2.38;;;3.70;99.90;;;;;;5097193;28;20047;-67
2023/01/27 05:05:47;;;;;;;7.47;2.40;;;3.70;99.90;;;;;;5097583;28;20484;-67
2023/01/27 05:08:13;;;;;;;5.72;2.25;;;4.00;99.90;;;;;;5097550;28;20043;-68
2023/01/27 05:10:41;;;;;;;5.50;2.50;;;3.70;99.90;;;;;;5114990;28;20040;-68
2023/01/27 05:13:07;;;;;;;6.90;2.35;;;3.70;99.90;;;;;;5114964;28;20047;-68
2023/01/27 05:15:32;;;;;;;4.75;2.47;;;3.70;99.90;;;;;;5115112;28;20130;-67
2023/01/27 05:17:58;;;;;;;7.90;2.65;;;3.70;99.90;;;;;;5115086;28;20055;-68
2023/01/27 05:20:24;;;;;;;5.10;2.05;;;3.70;99.90;;;;;;5096272;28;20054;-67
2023/01/27 05:22:50;;;;;;;7.30;2.60;;;3.60;99.90;;;;;;5097031;28;20048;-67
2023/01/27 05:25:16;;;;;;;5.75;2.30;;;3.70;99.90;;;;;;5080270;28;20346;-67
2023/01/27 05:27:42;;;;;;;10.02;2.78;;;3.60;99.90;;;;;;5114783;28;20051;-66
2023/01/27 05:30:08;;;;;;;5.65;2.30;;;4.00;99.90;;;;;;5096533;28;20043;-68
2023/01/27 05:32:34;;;;;;;7.53;2.63;;;3.70;99.90;;;;;;5114626;28;20145;-68
2023/01/27 05:34:59;;;;;;;6.13;2.38;;;3.60;99.90;;;;;;5096836;28;20061;-67
2023/01/27 05:37:26;;;;;;;4.95;1.95;;;3.60;99.90;;;;;;5114696;28;20051;-67
2023/01/27 05:39:51;;;;;;;6.50;2.33;;;3.60;99.90;;;;;;5115174;28;20398;-67
2023/01/27 05:42:17;;;;;;;5.40;2.20;;;3.70;99.90;;;;;;5114787;28;20154;-67
2023/01/27 05:44:43;;;;;;;7.28;2.33;;;3.60;99.90;;;;;;5079191;28;20043;-68
2023/01/27 05:47:08;;;;;;;6.20;2.13;;;3.70;99.90;;;;;;5078462;28;20055;-67
2023/01/27 05:49:34;;;;;;;5.88;1.77;;;3.60;99.90;;;;;;5113204;28;20038;-68
2023/01/27 05:52:00;;;;;;;7.55;2.38;;;3.60;99.90;;;;;;5095374;28;20422;-67
2023/01/27 05:54:26;;;;;;;3.78;1.98;;;3.60;99.90;;;;;;5078277;28;20042;-68
2023/01/27 05:56:51;;;;;;;4.15;1.80;;;3.60;99.90;;;;;;5095469;28;20127;-69
2023/01/27 05:59:17;;;;;;;3.17;1.73;;;3.60;99.90;;;;;;5113352;28;20101;-68
2023/01/27 06:01:43;;;;;;;3.53;1.60;;;3.60;99.90;;;;;;5094819;28;20047;-67
2023/01/27 06:04:09;;;;;;;3.92;1.85;;;3.60;99.90;;;;;;5078536;28;20418;-68
2023/01/27 06:06:35;;;;;;;5.93;1.77;;;3.60;99.90;;;;;;5112815;28;20039;-67
2023/01/27 06:09:00;;;;;;;6.43;2.40;;;3.70;99.90;;;;;;5095263;28;20112;-69
2023/01/27 06:11:27;;;;;;;3.25;2.13;;;3.60;99.90;;;;;;5094889;28;20050;-70
2023/01/27 06:13:53;;;;;;;3.78;1.90;;;3.50;99.90;;;;;;5095246;28;20126;-66
2023/01/27 06:16:21;;;;;;;3.78;1.98;;;3.60;99.90;;;;;;5113035;28;20381;-68
2023/01/27 06:18:47;;;;;;;5.78;1.88;;;3.50;99.90;;;;;;5094086;28;20036;-67
2023/01/27 06:21:15;;;;;;;4.30;1.83;;;3.40;99.90;;;;;;5113113;28;20492;-67
2023/01/27 06:23:41;;;;;;;2.92;1.70;;;3.40;99.90;;;;;;5094504;28;20495;-67
2023/01/27 06:26:09;;;;;;;6.60;1.92;;;3.40;99.90;;;;;;5095092;28;20043;-68
2023/01/27 06:28:38;;;;;;;2.83;1.80;;;3.40;99.90;;;;;;5112264;28;20119;-67
2023/01/27 06:31:16;;;;;;;5.38;2.10;;;3.40;99.90;;;;;;5094676;28;20082;-67
2023/01/27 06:33:42;;;;;;;5.97;1.88;;;3.30;99.90;;;;;;5077721;28;20052;-69
2023/01/27 06:36:11;;;;;;;4.93;1.80;;;3.30;99.90;;;;;;5094250;28;20501;-68
2023/01/27 06:38:37;;;;;;;4.10;2.00;;;3.30;99.90;;;;;;5112271;28;20169;-67
2023/01/27 06:41:03;;;;;;;4.47;2.10;;;3.30;99.90;;;;;;5077528;28;20083;-67
2023/01/27 06:43:29;;;;;;;5.25;1.98;;;3.30;99.90;;;;;;5112699;28;20051;-72
2023/01/27 06:45:56;;;;;;;6.97;2.10;;;3.30;99.90;;;;;;5037865;28;1606062;-68
2023/01/27 06:48:22;;;;;;;4.10;2.08;;;3.30;99.90;;;;;;5095062;28;20082;-68
2023/01/27 06:50:48;;;;;;;5.38;1.92;;;3.30;99.90;;;;;;5113325;28;20051;-68
2023/01/27 06:53:14;;;;;;;5.68;1.90;;;3.30;99.90;;;;;;5095591;28;20046;-69
2023/01/27 06:55:43;;;;;;;5.15;2.33;;;3.30;99.90;;;;;;5094571;28;20078;-68
2023/01/27 06:58:10;;;;;;;5.20;1.80;;;3.30;99.90;;;;;;5112738;28;20408;-67
2023/01/27 07:00:37;;;;;;;4.85;2.22;;;3.70;99.90;;;;;;5094459;28;20047;-68
2023/01/27 07:03:03;;;;;;;4.57;1.80;;;3.30;99.90;;;;;;5112924;28;20139;-68
2023/01/27 07:05:29;;;;;;;6.72;2.72;;;3.60;99.90;;;;;;5113235;28;20047;-67
2023/01/27 07:07:55;;;;;;;4.45;1.80;;;3.30;99.90;;;;;;5094607;28;20122;-66
2023/01/27 07:10:21;;;;;;;6.70;1.88;;;3.30;99.90;;;;;;5078141;28;20126;-68
2023/01/27 07:12:47;;;;;;;6.63;2.05;;;;;;;;;;5094453;28;20164;-67
2023/01/27 07:15:13;;;;;;;4.30;1.80;;;3.30;99.90;;;;;;5095212;28;20142;-67
2023/01/27 07:17:39;;;;;;;6.70;1.90;;;3.20;99.90;;;;;;5094176;28;20054;-68
2023/01/27 07:20:06;;;;;;;7.05;2.03;;;3.20;99.90;;;;;;5112740;28;20048;-68
2023/01/27 07:22:32;;;;;;;4.88;2.00;;;3.20;99.90;;;;;;5078061;28;20128;-66
2023/01/27 07:24:58;;;;;;;5.65;1.95;;;3.20;99.90;;;;;;5094451;28;20410;-68
2023/01/27 07:27:24;;;;;;;6.05;2.20;;;3.20;99.90;;;;;;5094594;28;20431;-67
2023/01/27 07:29:50;;;;;;;3.50;1.70;;;3.20;99.90;;;;;;5094398;28;20043;-67
2023/01/27 07:32:16;;;;;;;7.70;2.15;;;3.20;99.90;;;;;;5112650;28;20511;-66
2023/01/27 07:34:42;;;;;;;7.72;2.05;;;3.20;99.90;;;;;;5112054;28;20044;-66
2023/01/27 07:37:08;;;;;;;5.18;1.80;;;3.30;99.90;;;;;;5112534;28;20485;-67
2023/01/27 07:39:36;;;;;;;5.90;2.15;;;3.20;99.90;;;;;;5112371;28;20040;-67
2023/01/27 07:42:02;;;;;;;9.85;2.65;;;3.30;99.90;;;;;;5111745;28;20047;-66
2023/01/27 07:44:28;;;;;;;7.57;2.20;;;3.30;99.90;;;;;;5112298;28;20048;-67
2023/01/27 07:46:54;;;;;;;6.90;2.20;;;3.30;99.90;;;;;;5112205;28;20446;-67
2023/01/27 07:49:20;;;;;;;5.43;2.15;;;3.30;99.90;;;;;;5112578;28;20040;-66
2023/01/27 07:51:45;;;;;;;7.95;2.28;;;3.20;99.90;;;;;;5093868;28;20130;-66
2023/01/27 07:54:11;;;;;;;4.60;1.90;;;3.30;99.90;;;;;;5112486;28;20046;-67
2023/01/27 07:56:37;;;;;;;6.57;1.98;;;3.30;99.90;;;;;;5112410;28;20400;-66
2023/01/27 07:59:03;;;;;;;9.30;2.85;;;3.30;99.90;;;;;;5111783;28;20039;-68
2023/01/27 08:01:30;;;;;;;8.07;2.33;;;3.30;99.90;;;;;;5094539;28;20096;-66
2023/01/27 08:03:55;;;;;;;6.82;2.40;;;3.30;99.90;;;;;;5077100;28;20054;-67
2023/01/27 08:06:21;;;;;;;9.00;2.38;;;3.30;99.90;;;;;;5112477;28;20051;-67
2023/01/27 08:08:47;;;;;;;7.78;2.65;;;3.40;99.90;;;;;;5093874;28;20055;-68
2023/01/27 08:11:14;;;;;;;7.20;2.70;;;3.40;99.90;;;;;;5094168;28;20126;-68
2023/01/27 08:13:40;;;;;;;8.73;2.20;;;3.30;99.90;;;;;;5077458;28;20051;-68
2023/01/27 08:16:10;;;;;;;6.57;2.30;;;3.30;99.90;;;;;;5111781;28;20043;-68
2023/01/27 08:18:35;;;;;;;8.70;2.38;;;3.30;99.90;;;;;;5112105;28;20078;-68
2023/01/27 08:21:04;;;;;;;9.95;2.92;;;3.40;99.90;;;;;;5111877;28;20630;-67
2023/01/27 08:23:31;;;;;;;6.07;2.55;;;3.40;99.90;;;;;;5093970;28;20097;-68
2023/01/27 08:25:59;;;;;;;8.85;2.55;;;3.50;99.90;;;;;;5093647;28;20420;-67
2023/01/27 08:28:27;;;;;;;9.60;2.53;;;3.40;99.90;;;;;;5112175;28;20048;-68
2023/01/27 08:30:54;;;;;;;7.53;2.40;;;3.40;99.90;;;;;;5093744;28;20094;-68
2023/01/27 08:33:21;;;;;;;8.20;2.30;;;3.40;99.90;;;;;;5111833;28;20059;-67
2023/01/27 08:35:48;;;;;;;5.13;2.35;;;3.40;99.90;;;;;;5093521;28;20181;-68
2023/01/27 08:38:15;;;;;;;6.85;2.47;;;3.60;99.90;;;;;;5093740;28;20130;-67
2023/01/27 08:40:41;;;;;;;6.72;2.40;;;3.50;99.90;;;;;;5112093;28;20055;-69
2023/01/27 08:43:08;;;;;;;9.23;2.58;;;3.50;99.90;;;;;;5111509;28;20139;-69
2023/01/27 08:45:35;;;;;;;7.60;2.75;;;3.50;99.90;;;;;;5093381;28;20134;-68
2023/01/27 08:48:01;;;;;;;7.35;2.75;;;3.50;99.90;;;;;;5076735;28;20036;-68
2023/01/27 08:50:29;;;;;;;8.85;2.40;;;3.60;99.90;;;;;;5112009;28;20105;-68
2023/01/27 08:52:57;;;;;;;10.25;2.67;;;3.60;99.90;;;;;;5111368;28;20493;-69
2023/01/27 08:55:29;;;;;;;6.80;2.40;;;3.50;99.90;;;;;;5111357;28;20456;-70
2023/01/27 08:57:55;;;;;;;7.75;2.42;;;3.60;99.90;;;;;;5111434;28;20047;-69
2023/01/27 09:00:21;;;;;;;8.88;2.65;;;3.60;99.90;;;;;;5111793;28;20047;-68
2023/01/27 09:02:49;;;;;;;6.75;2.55;;;3.60;99.90;;;;;;5093164;28;20551;-67
2023/01/27 09:05:16;;;;;;;8.13;3.00;;;3.60;99.90;;;;;;5093655;28;20085;-68
2023/01/27 09:07:42;;;;;;;5.03;2.50;;;3.60;99.90;;;;;;5111717;28;20063;-66
2023/01/27 09:10:09;;;;;;;6.32;2.53;;;3.60;99.90;;;;;;5076498;28;20070;-67
2023/01/27 09:12:35;;;;;;;8.05;2.58;;;3.60;99.90;;;;;;5093259;28;20408;-68
2023/01/27 09:15:00;;;;;;;4.97;2.35;;;3.70;99.90;;;;;;5111013;28;20492;-67
2023/01/27 09:17:26;;;;;;;6.40;2.65;;;3.70;99.90;;;;;;5076692;28;20039;-67
2023/01/27 09:19:52;;;;;;;8.10;2.83;;;3.70;99.90;;;;;;5092788;28;20181;-71
2023/01/27 09:22:18;;;;;;;8.05;2.88;;;3.70;99.90;;;;;;5094773;28;20055;-68
2023/01/27 09:24:44;;;;;;;7.55;2.88;;;3.90;99.90;;;;;;5080147;28;20044;-68
2023/01/27 09:27:10;;;;;;;6.72;2.33;;;4.20;99.90;;;;;;5114510;28;20122;-68
2023/01/27 09:29:36;;;;;;;7.53;2.60;;;3.80;99.90;;;;;;5080283;28;20051;-69
2023/01/27 09:32:02;;;;;;;5.80;2.55;;;3.90;99.90;;;;;;5114534;28;20061;-66
2023/01/27 09:34:28;;;;;;;8.50;2.75;;;3.90;99.90;;;;;;5114884;28;20134;-67
2023/01/27 09:37:00;;;;;;;3.53;2.33;;;3.90;99.90;;;;;;5114701;28;20229;-72
2023/01/27 09:39:28;;;;;;;9.38;2.58;;;4.00;99.90;;;;;;5115085;28;20047;-68
2023/01/27 09:41:54;;;;;;;8.35;2.60;;;4.00;99.90;;;;;;5114935;28;20116;-72
2023/01/27 09:44:28;;;;;;;8.95;2.50;;;4.00;99.90;;;;;;5114863;28;20055;-68
2023/01/27 09:47:22;;;;;;;6.38;2.95;;;4.00;99.90;;;;;;5096232;28;20142;-69
2023/01/27 09:49:54;;;;;;;5.10;2.35;;;4.10;99.90;;;;;;5114626;28;20052;-69
2023/01/27 09:52:57;;;;;;;5.53;2.33;;;4.10;99.90;;;;;;5114712;28;20047;-69
2023/01/27 09:55:47;;;;;;;4.95;2.30;;;4.10;99.90;;;;;;4998926;28;20054;-67
2023/01/27 09:58:30;;;;;;;11.18;2.75;;;4.20;99.90;;;;;;5111733;28;20412;-68
2023/01/27 10:01:08;;;;;;;6.15;2.47;;;4.20;99.90;;;;;;5096300;28;20143;-72
2023/01/27 10:03:43;;;;;;;4.30;2.58;;;4.30;99.90;;;;;;5114521;28;20507;-69
2023/01/27 10:06:18;;;;;;;;;;;4.30;99.90;;;;;;5096698;28;20504;-69
2023/01/27 10:08:44;;;;;;;;;;;4.30;99.90;;;;;;5114912;28;19923;-67
2023/01/27 10:11:24;;;;;;;5.15;2.00;;;4.20;99.90;;;;;;5114069;28;19973;-68
2023/01/27 10:14:22;;;;;;;4.50;1.98;;;4.20;99.90;;;;;;5096317;28;20046;-67
2023/01/27 10:17:19;;;;;;;4.25;1.80;;;4.20;99.90;;;;;;5079102;28;20055;-68
2023/01/27 10:20:24;;;;;;;5.88;2.35;;;4.20;99.90;;;;;;5113730;28;20100;-67
2023/01/27 10:23:02;;;;;;;3.60;1.70;;;4.20;99.90;;;;;;5114154;28;20047;-67
2023/01/27 10:25:57;;;;;;;3.40;1.60;;;4.20;99.90;;;;;;5113973;28;20056;-69
2023/01/27 10:28:28;;;;;;;3.78;2.00;;;4.20;99.90;;;;;;5114146;28;20040;-69
2023/01/27 10:30:59;;;;;;;3.58;1.70;;;4.20;99.90;;;;;;5095986;28;20374;-67
2023/01/27 10:33:40;;;;;;;4.00;1.38;;;4.20;99.90;;;;;;5094340;28;20530;-69
2023/01/27 10:36:20;;;;;;;4.15;1.70;;;4.20;99.90;;;;;;5095736;28;20047;-69
2023/01/27 10:39:20;;;;;;;2.45;1.60;;;4.20;99.90;;;;;;5095598;28;20067;-69
2023/01/27 10:42:09;;;;;;;4.45;1.92;;;4.20;99.90;;;;;;5096501;28;20082;-69
2023/01/27 10:44:54;;;;;;;4.63;1.90;;;4.20;99.90;;;;;;5096069;28;20039;-69
2023/01/27 10:48:02;;;;;;;2.97;1.92;;;4.20;99.90;;;;;;5095293;28;20052;-69
2023/01/27 10:50:57;;;;;;;1.85;1.60;;;4.20;99.90;;;;;;5067831;28;20047;-68
2023/01/27 10:53:44;;;;;;;2.08;1.60;;;4.20;99.90;;;;;;5070601;28;20135;-68
2023/01/27 10:56:24;;;;;;;2.33;1.63;;;4.20;99.90;;;;;;5095134;28;20051;-69
2023/01/27 10:59:19;;;;;;;3.28;2.17;;;4.20;99.90;;;;;;5095320;28;20048;-68
2023/01/27 11:02:08;;;;;;;3.42;2.40;;;4.20;99.90;;;;;;5095200;28;20113;-70
2023/01/27 11:04:47;;;;;;;4.85;2.78;;;4.10;99.90;;;;;;5112968;28;20092;-69
2023/01/27 11:07:18;;;;;;;3.40;2.75;;;4.10;99.90;;;;;;5112725;28;20078;-69
2023/01/27 11:09:55;;;;;;;4.32;2.92;;;4.00;99.90;;;;;;5112974;28;20385;-69
2023/01/27 11:12:38;;;;;;;5.53;3.17;;;4.10;99.90;;;;;;5077623;28;20046;-70
2023/01/27 11:15:23;;;;;;;6.45;2.95;;;4.00;99.90;;;;;;5095256;28;20505;-69
2023/01/27 11:18:09;;;;;;;4.70;3.00;;;4.00;99.90;;;;;;5112553;28;20039;-70
2023/01/27 11:20:38;;;;;;;3.75;2.97;;;4.00;99.90;;;;;;5113189;28;20122;-71
2023/01/27 11:23:16;;;;;;;5.35;2.97;;;4.00;99.90;;;;;;5094997;28;20052;-70
2023/01/27 11:25:51;;;;;;;5.90;3.20;;;4.10;99.90;;;;;;5113188;28;20049;-70
2023/01/27 11:28:52;;;;;;;4.88;3.03;;;4.00;99.90;;;;;;5094592;28;20104;-69
2023/01/27 11:31:34;;;;;;;5.43;3.10;;;3.90;99.90;;;;;;5112840;28;20448;-69
2023/01/27 11:34:40;;;;;;;4.13;3.08;;;3.90;99.90;;;;;;5094753;28;20044;-70
2023/01/27 11:37:20;;;;;;;4.20;3.45;;;3.90;99.90;;;;;;5112804;28;20044;-70
2023/01/27 11:39:47;;;;;;;5.32;3.40;;;3.90;99.90;;;;;;5112799;28;20043;-70
2023/01/27 11:42:13;;;;;;;4.53;3.42;;;3.90;99.90;;;;;;5094290;28;20462;-71
2023/01/27 11:44:41;;;;;;;6.05;3.38;;;3.90;99.90;;;;;;5060658;28;20397;-70
2023/01/27 11:47:14;;;;;;;5.85;3.65;;;3.90;99.90;;;;;;5077403;28;20132;-69
2023/01/27 11:49:44;;;;;;;5.97;3.45;;;3.90;99.90;;;;;;5112792;28;20116;-70
2023/01/27 11:52:16;;;;;;;3.97;3.22;;;3.80;99.90;;;;;;5094963;28;20056;-70
2023/01/27 11:54:58;;;;;;;4.28;3.60;;;3.80;99.90;;;;;;5112414;28;20055;-70
2023/01/27 11:57:26;;;;;;;4.85;4.00;;;3.80;99.90;;;;;;5112305;28;20054;-70
2023/01/27 12:00:18;;;;;;;5.32;4.03;;;3.80;99.90;;;;;;5094390;28;20100;-69
2023/01/27 12:02:53;;;;;;;5.00;4.13;;;3.80;99.90;;;;;;5108391;28;20051;-69
2023/01/27 12:05:45;;;;;;;7.45;4.28;;;3.80;99.90;;;;;;5093664;28;20051;-68
2023/01/27 12:08:10;;;;;;;5.15;3.47;;;3.80;99.90;;;;;;5112121;28;20512;-67
2023/01/27 12:10:41;;;;;;;4.72;3.83;;;3.90;99.90;;;;;;5093247;28;20040;-69
2023/01/27 12:13:16;;;;;;;5.30;3.88;;;3.80;99.90;;;;;;5094201;28;20157;-71
2023/01/27 12:15:54;;;;;;;6.82;4.30;;;3.80;99.90;;;;;;5112447;28;20046;-68
2023/01/27 12:18:22;;;;;;;4.93;4.05;;;3.80;99.90;;;;;;5093758;28;20031;-70
2023/01/27 12:21:06;;;;;;;5.57;4.03;;;3.80;99.90;;;;;;5112453;28;20523;-70
2023/01/27 12:23:36;;;;;;;4.85;3.95;;;3.80;99.90;;;;;;5093818;28;20486;-71
2023/01/27 12:26:09;;;;;;;5.78;3.95;;;4.20;99.90;;;;;;5112419;28;20054;-70
2023/01/27 12:28:40;;;;;;;6.60;4.60;;;3.80;99.90;;;;;;5111908;28;20503;-70
2023/01/27 12:31:18;;;;;;;6.00;4.20;;;3.80;99.90;;;;;;5112365;28;20050;-70
2023/01/27 12:33:50;;;;;;;7.60;4.80;;;3.70;99.90;;;;;;5112412;28;20051;-69
2023/01/27 12:36:23;;;;;;;4.93;4.13;;;3.70;99.90;;;;;;5112015;28;20043;-71
2023/01/27 12:39:00;;;;;;;5.20;3.95;;;3.80;99.90;;;;;;5112116;28;20443;-69
2023/01/27 12:41:34;;;;;;;4.75;3.60;;;3.80;99.90;;;;;;5112138;28;20043;-67
2023/01/27 12:44:14;;;;;;;;;;;3.80;99.90;;;;;;5112595;28;20051;-69
2023/01/27 12:46:53;;;;;;;4.30;3.28;;;3.80;99.90;;;;;;5111766;28;20031;-69
2023/01/27 12:49:20;;;;;;;6.00;3.80;;;3.70;99.90;;;;;;5111661;28;20487;-71
2023/01/27 12:51:55;;;;;;;4.68;3.42;;;3.70;99.90;;;;;;5094036;28;20050;-70
2023/01/27 12:54:26;;;;;;;5.97;4.10;;;3.70;99.90;;;;;;5093483;28;20295;-69
2023/01/27 12:56:55;;;;;;;4.20;3.80;;;3.70;99.90;;;;;;5112800;28;20036;-69
2023/01/27 12:59:24;;;;;;;5.60;3.47;;;3.70;99.90;;;;;;5115268;28;20048;-69
2023/01/27 13:02:10;;;;;;;2.95;2.58;;;3.70;99.90;;;;;;5097695;28;20047;-69
2023/01/27 13:04:37;;;;;;;4.70;3.20;;;3.70;99.90;;;;;;5097397;28;20152;-69
2023/01/27 13:07:07;;;;;;;4.47;3.13;;;3.80;99.90;;;;;;5115854;28;20100;-69
2023/01/27 13:09:45;;;;;;;3.25;2.67;;;3.70;99.90;;;;;;5097145;28;20050;-69
2023/01/27 13:12:48;;;;;;;6.07;2.88;;;3.70;99.90;;;;;;5115835;28;20126;-70
2023/01/27 13:15:16;;;;;;;4.95;2.97;;;3.70;99.90;;;;;;5080707;28;20048;-69
2023/01/27 13:18:08;;;;;;;3.15;2.55;;;3.80;99.90;;;;;;5115320;28;20281;-69
2023/01/27 13:20:44;;;;;;;3.97;2.90;;;3.80;99.90;;;;;;5092998;28;20070;-71
2023/01/27 13:23:18;;;;;;;3.20;2.80;;;3.80;99.90;;;;;;5115490;28;20050;-68
2023/01/27 13:26:01;;;;;;;4.40;3.00;;;3.80;99.90;;;;;;5097124;28;20048;-68
2023/01/27 13:28:33;;;;;;;3.40;2.95;;;3.80;99.90;;;;;;5115120;28;20048;-68
2023/01/27 13:31:05;;;;;;;4.18;3.35;;;3.90;99.90;;;;;;5097174;28;20426;-70
2023/01/27 13:33:53;;;;;;;5.47;3.35;;;3.90;99.90;;;;;;5114652;28;20130;-69
2023/01/27 13:36:42;;;;;;;7.57;3.95;;;3.90;99.90;;;;;;5115245;28;20058;-69
2023/01/27 13:39:45;;;;;;;4.57;3.45;;;3.90;99.90;;;;;;5096923;28;20046;-71